Overview Statistics Trail Chart Weather Telemetry Raw packets
 

This is the latest recevied weather packets stored in our database for station/object WA6ODQ-13. If no packets are shown the sender has not sent any weather packets the latest 10 day(s).

<< 91 92 93 94 95 96 97 >>
Time Temp. Humidity Pressure Rain* Wind** Luminosity Snow
1787993436 17.78° C 72% 1010.9 hPa 0 mm - 0 W/m² -
1787993131 17.78° C 71% 1010.8 hPa 0 mm - 0 W/m² -
1787992826 17.78° C 69% 1011.1 hPa 0 mm - 0 W/m² -
1787992525 18.33° C 69% 1010.8 hPa 0 mm - 0 W/m² -
1787992225 18.33° C 69% 1011 hPa 0 mm - 0 W/m² -
1787991920 18.33° C 69% 1010.8 hPa 0 mm - 0 W/m² -
1787991620 18.89° C 68% 1011 hPa 0 mm - 0 W/m² -
1787991316 19.44° C 64% 1011 hPa 0 mm - 0 W/m² -
1787991015 18.89° C 64% 1011 hPa 0 mm - 0 W/m² -
1787990715 18.89° C 65% 1011.2 hPa 0 mm - 0 W/m² -
1787990410 18.33° C 69% 1010.8 hPa 0 mm - 0 W/m² -
1787990104 18.33° C 69% 1011.2 hPa 0 mm - 0 W/m² -
1787989803 18.33° C 68% 1010.8 hPa 0 mm - 0 W/m² -
1787989499 18.89° C 67% 1011 hPa 0 mm - 0 W/m² -
1787989197 18.89° C 67% 1010.9 hPa 0 mm - 0 W/m² -
1787988891 19.44° C 66% 1010.9 hPa 0 mm - 0 W/m² -
1787988587 18.89° C 67% 1010.9 hPa 0 mm - 0 W/m² -
1787988283 19.44° C 68% 1011 hPa 0 mm - 0 W/m² -
1787987977 19.44° C 67% 1010.8 hPa 0 mm - 0 W/m² -
1787987672 20.56° C 64% 1010.8 hPa 0 mm - 0 W/m² -
1787987367 20.56° C 61% 1010.7 hPa 0 mm - 0 W/m² -
1787987063 20.56° C 61% 1010.5 hPa 0 mm - 0 W/m² -
1787986761 20.56° C 62% 1010.5 hPa 0 mm - 0 W/m² -
1787986455 20.56° C 61% 1010.6 hPa 0 mm - 0 W/m² -
1787986149 20.56° C 62% 1010.4 hPa 0 mm - 0 W/m² -

* Rain latest hour (hover to see other rain measurements)
** Current wind speed in m/s (hover to see current wind gust speed)